sensor_id;sensor_type;location;lat;lon;timestamp;temperature;humidity
8422;DHT22;4248;48.196;10.924;2022-11-21T00:00:44;5.30;69.20
8422;DHT22;4248;48.196;10.924;2022-11-21T00:03:11;5.40;69.10
8422;DHT22;4248;48.196;10.924;2022-11-21T00:05:42;5.40;68.90
8422;DHT22;4248;48.196;10.924;2022-11-21T00:08:12;5.40;68.90
8422;DHT22;4248;48.196;10.924;2022-11-21T00:10:38;5.40;68.80
8422;DHT22;4248;48.196;10.924;2022-11-21T00:13:05;5.50;68.80
8422;DHT22;4248;48.196;10.924;2022-11-21T00:15:32;5.50;68.80
8422;DHT22;4248;48.196;10.924;2022-11-21T00:18:02;5.40;68.80
8422;DHT22;4248;48.196;10.924;2022-11-21T00:20:28;5.40;68.80
8422;DHT22;4248;48.196;10.924;2022-11-21T00:22:54;5.30;69.20
8422;DHT22;4248;48.196;10.924;2022-11-21T00:25:19;5.30;69.40
8422;DHT22;4248;48.196;10.924;2022-11-21T00:27:45;5.40;69.40
8422;DHT22;4248;48.196;10.924;2022-11-21T00:30:11;5.30;69.40
8422;DHT22;4248;48.196;10.924;2022-11-21T00:32:37;5.40;69.30
8422;DHT22;4248;48.196;10.924;2022-11-21T00:35:04;5.40;69.30
8422;DHT22;4248;48.196;10.924;2022-11-21T00:37:33;5.40;69.10
8422;DHT22;4248;48.196;10.924;2022-11-21T00:39:59;5.50;69.00
8422;DHT22;4248;48.196;10.924;2022-11-21T00:42:25;5.50;68.90
8422;DHT22;4248;48.196;10.924;2022-11-21T00:44:50;5.60;68.80
8422;DHT22;4248;48.196;10.924;2022-11-21T00:47:16;5.60;68.90
8422;DHT22;4248;48.196;10.924;2022-11-21T00:49:41;5.60;68.80
8422;DHT22;4248;48.196;10.924;2022-11-21T00:52:07;5.60;68.80
8422;DHT22;4248;48.196;10.924;2022-11-21T00:54:33;5.60;68.90
8422;DHT22;4248;48.196;10.924;2022-11-21T00:56:58;5.60;68.90
8422;DHT22;4248;48.196;10.924;2022-11-21T00:59:24;5.70;68.80
8422;DHT22;4248;48.196;10.924;2022-11-21T01:01:50;5.70;68.80
8422;DHT22;4248;48.196;10.924;2022-11-21T01:04:15;5.70;68.80
8422;DHT22;4248;48.196;10.924;2022-11-21T01:06:41;5.70;68.80
8422;DHT22;4248;48.196;10.924;2022-11-21T01:09:07;5.70;68.80
8422;DHT22;4248;48.196;10.924;2022-11-21T01:11:32;5.70;68.80
8422;DHT22;4248;48.196;10.924;2022-11-21T01:13:58;5.80;68.90
8422;DHT22;4248;48.196;10.924;2022-11-21T01:16:25;5.80;68.90
8422;DHT22;4248;48.196;10.924;2022-11-21T01:18:52;5.80;68.80
8422;DHT22;4248;48.196;10.924;2022-11-21T01:21:20;5.80;68.80
8422;DHT22;4248;48.196;10.924;2022-11-21T01:23:47;5.90;68.80
8422;DHT22;4248;48.196;10.924;2022-11-21T01:26:15;5.90;68.80
8422;DHT22;4248;48.196;10.924;2022-11-21T01:28:41;5.90;68.80
8422;DHT22;4248;48.196;10.924;2022-11-21T01:31:09;5.90;68.80
8422;DHT22;4248;48.196;10.924;2022-11-21T01:33:35;5.90;68.80
8422;DHT22;4248;48.196;10.924;2022-11-21T01:38:33;6.00;68.80
8422;DHT22;4248;48.196;10.924;2022-11-21T01:40:58;6.00;68.70
8422;DHT22;4248;48.196;10.924;2022-11-21T01:43:24;6.00;68.70
8422;DHT22;4248;48.196;10.924;2022-11-21T01:45:54;6.00;70.00
8422;DHT22;4248;48.196;10.924;2022-11-21T01:51:12;5.90;68.80
8422;DHT22;4248;48.196;10.924;2022-11-21T01:53:39;5.90;68.80
8422;DHT22;4248;48.196;10.924;2022-11-21T01:56:07;5.90;69.10
8422;DHT22;4248;48.196;10.924;2022-11-21T01:58:34;5.90;69.10
8422;DHT22;4248;48.196;10.924;2022-11-21T02:01:00;5.90;69.10
8422;DHT22;4248;48.196;10.924;2022-11-21T02:03:28;5.80;68.30
8422;DHT22;4248;48.196;10.924;2022-11-21T02:05:56;5.80;69.40
8422;DHT22;4248;48.196;10.924;2022-11-21T02:08:24;5.70;69.60
8422;DHT22;4248;48.196;10.924;2022-11-21T02:11:57;5.60;69.80
8422;DHT22;4248;48.196;10.924;2022-11-21T02:13:58;5.60;69.70
8422;DHT22;4248;48.196;10.924;2022-11-21T02:16:24;5.50;69.80
8422;DHT22;4248;48.196;10.924;2022-11-21T02:18:50;5.50;69.90
8422;DHT22;4248;48.196;10.924;2022-11-21T02:21:54;5.50;69.90
8422;DHT22;4248;48.196;10.924;2022-11-21T02:24:43;5.50;69.50
8422;DHT22;4248;48.196;10.924;2022-11-21T02:27:10;5.70;69.00
8422;DHT22;4248;48.196;10.924;2022-11-21T02:29:37;5.70;68.80
8422;DHT22;4248;48.196;10.924;2022-11-21T02:32:04;5.80;68.80
8422;DHT22;4248;48.196;10.924;2022-11-21T02:34:30;5.60;69.00
8422;DHT22;4248;48.196;10.924;2022-11-21T02:36:56;5.50;69.40
8422;DHT22;4248;48.196;10.924;2022-11-21T02:39:26;5.40;69.50
8422;DHT22;4248;48.196;10.924;2022-11-21T02:42:27;5.30;69.90
8422;DHT22;4248;48.196;10.924;2022-11-21T02:45:13;5.10;70.40
8422;DHT22;4248;48.196;10.924;2022-11-21T02:47:41;4.90;70.70
8422;DHT22;4248;48.196;10.924;2022-11-21T02:50:17;4.90;70.90
8422;DHT22;4248;48.196;10.924;2022-11-21T02:52:44;4.80;70.70
8422;DHT22;4248;48.196;10.924;2022-11-21T02:55:09;4.80;70.50
8422;DHT22;4248;48.196;10.924;2022-11-21T02:57:38;4.90;70.50
8422;DHT22;4248;48.196;10.924;2022-11-21T03:00:04;4.80;70.50
8422;DHT22;4248;48.196;10.924;2022-11-21T03:02:30;4.80;70.60
8422;DHT22;4248;48.196;10.924;2022-11-21T03:04:56;4.70;70.60
8422;DHT22;4248;48.196;10.924;2022-11-21T03:07:22;4.80;70.50
8422;DHT22;4248;48.196;10.924;2022-11-21T03:09:47;4.80;70.60
8422;DHT22;4248;48.196;10.924;2022-11-21T03:12:13;4.80;70.40
8422;DHT22;4248;48.196;10.924;2022-11-21T03:14:38;4.80;70.20
8422;DHT22;4248;48.196;10.924;2022-11-21T03:17:04;5.00;69.80
8422;DHT22;4248;48.196;10.924;2022-11-21T03:19:30;5.10;69.30
8422;DHT22;4248;48.196;10.924;2022-11-21T03:21:55;5.30;68.80
8422;DHT22;4248;48.196;10.924;2022-11-21T03:24:21;5.40;68.50
8422;DHT22;4248;48.196;10.924;2022-11-21T03:26:47;5.50;68.20
8422;DHT22;4248;48.196;10.924;2022-11-21T03:29:13;5.60;68.10
8422;DHT22;4248;48.196;10.924;2022-11-21T03:31:38;5.60;68.00
8422;DHT22;4248;48.196;10.924;2022-11-21T03:34:04;5.60;68.00
8422;DHT22;4248;48.196;10.924;2022-11-21T03:36:30;5.70;68.00
8422;DHT22;4248;48.196;10.924;2022-11-21T03:38:56;5.70;67.80
8422;DHT22;4248;48.196;10.924;2022-11-21T03:41:22;5.80;67.90
8422;DHT22;4248;48.196;10.924;2022-11-21T03:44:02;5.80;67.90
8422;DHT22;4248;48.196;10.924;2022-11-21T03:46:29;5.90;67.90
8422;DHT22;4248;48.196;10.924;2022-11-21T03:48:55;5.90;68.10
8422;DHT22;4248;48.196;10.924;2022-11-21T03:51:21;5.90;68.10
8422;DHT22;4248;48.196;10.924;2022-11-21T03:53:47;5.90;67.90
8422;DHT22;4248;48.196;10.924;2022-11-21T03:56:13;5.90;68.00
8422;DHT22;4248;48.196;10.924;2022-11-21T03:58:38;5.90;68.00
8422;DHT22;4248;48.196;10.924;2022-11-21T04:01:04;5.90;68.10
8422;DHT22;4248;48.196;10.924;2022-11-21T04:03:30;5.90;68.40
8422;DHT22;4248;48.196;10.924;2022-11-21T04:05:56;5.80;68.40
8422;DHT22;4248;48.196;10.924;2022-11-21T04:08:22;5.80;68.50
8422;DHT22;4248;48.196;10.924;2022-11-21T04:10:48;5.80;68.70
8422;DHT22;4248;48.196;10.924;2022-11-21T04:13:14;5.70;68.90
8422;DHT22;4248;48.196;10.924;2022-11-21T04:15:40;5.70;67.70
8422;DHT22;4248;48.196;10.924;2022-11-21T04:18:06;5.70;68.90
8422;DHT22;4248;48.196;10.924;2022-11-21T04:20:32;5.70;69.00
8422;DHT22;4248;48.196;10.924;2022-11-21T04:22:58;5.70;68.90
8422;DHT22;4248;48.196;10.924;2022-11-21T04:25:23;5.70;69.00
8422;DHT22;4248;48.196;10.924;2022-11-21T04:27:49;5.60;70.20
8422;DHT22;4248;48.196;10.924;2022-11-21T04:30:15;5.60;69.00
8422;DHT22;4248;48.196;10.924;2022-11-21T04:32:40;5.60;69.00
8422;DHT22;4248;48.196;10.924;2022-11-21T04:35:06;5.60;68.10
8422;DHT22;4248;48.196;10.924;2022-11-21T04:37:32;5.50;69.20
8422;DHT22;4248;48.196;10.924;2022-11-21T04:39:58;5.50;69.40
8422;DHT22;4248;48.196;10.924;2022-11-21T04:42:23;5.40;69.60
8422;DHT22;4248;48.196;10.924;2022-11-21T04:44:49;5.30;69.50
8422;DHT22;4248;48.196;10.924;2022-11-21T04:47:15;5.30;69.70
8422;DHT22;4248;48.196;10.924;2022-11-21T04:49:40;5.30;69.80
8422;DHT22;4248;48.196;10.924;2022-11-21T04:52:06;5.30;69.60
8422;DHT22;4248;48.196;10.924;2022-11-21T04:54:31;5.30;68.20
8422;DHT22;4248;48.196;10.924;2022-11-21T04:56:57;5.30;69.20
8422;DHT22;4248;48.196;10.924;2022-11-21T04:59:22;5.30;69.20
8422;DHT22;4248;48.196;10.924;2022-11-21T05:01:48;5.40;68.90
8422;DHT22;4248;48.196;10.924;2022-11-21T05:04:14;5.50;68.80
8422;DHT22;4248;48.196;10.924;2022-11-21T05:06:39;5.40;68.80
8422;DHT22;4248;48.196;10.924;2022-11-21T05:09:05;5.40;68.80
8422;DHT22;4248;48.196;10.924;2022-11-21T05:11:30;5.40;69.00
8422;DHT22;4248;48.196;10.924;2022-11-21T05:14:14;5.30;69.50
8422;DHT22;4248;48.196;10.924;2022-11-21T05:16:40;5.20;70.10
8422;DHT22;4248;48.196;10.924;2022-11-21T05:19:06;5.10;70.50
8422;DHT22;4248;48.196;10.924;2022-11-21T05:21:32;5.10;70.80
8422;DHT22;4248;48.196;10.924;2022-11-21T05:23:57;5.20;70.50
8422;DHT22;4248;48.196;10.924;2022-11-21T05:26:23;5.20;70.10
8422;DHT22;4248;48.196;10.924;2022-11-21T05:28:48;5.30;69.90
8422;DHT22;4248;48.196;10.924;2022-11-21T05:31:14;5.30;69.60
8422;DHT22;4248;48.196;10.924;2022-11-21T05:33:39;5.40;70.00
8422;DHT22;4248;48.196;10.924;2022-11-21T05:36:05;5.40;69.20
8422;DHT22;4248;48.196;10.924;2022-11-21T05:38:31;5.40;69.30
8422;DHT22;4248;48.196;10.924;2022-11-21T05:40:56;5.40;69.40
8422;DHT22;4248;48.196;10.924;2022-11-21T05:43:22;5.30;69.80
8422;DHT22;4248;48.196;10.924;2022-11-21T05:46:06;5.50;69.80
8422;DHT22;4248;48.196;10.924;2022-11-21T05:48:32;5.40;69.80
8422;DHT22;4248;48.196;10.924;2022-11-21T05:50:59;5.50;69.90
8422;DHT22;4248;48.196;10.924;2022-11-21T05:53:24;5.20;69.40
8422;DHT22;4248;48.196;10.924;2022-11-21T05:55:50;5.20;70.50
8422;DHT22;4248;48.196;10.924;2022-11-21T05:58:15;5.10;70.80
8422;DHT22;4248;48.196;10.924;2022-11-21T06:00:41;5.10;70.80
8422;DHT22;4248;48.196;10.924;2022-11-21T06:03:09;5.10;70.70
8422;DHT22;4248;48.196;10.924;2022-11-21T06:06:07;5.10;69.60
8422;DHT22;4248;48.196;10.924;2022-11-21T06:08:45;5.10;70.50
8422;DHT22;4248;48.196;10.924;2022-11-21T06:11:15;5.10;70.50
8422;DHT22;4248;48.196;10.924;2022-11-21T06:13:41;5.20;70.40
8422;DHT22;4248;48.196;10.924;2022-11-21T06:16:15;5.10;70.50
8422;DHT22;4248;48.196;10.924;2022-11-21T06:18:46;4.80;71.00
8422;DHT22;4248;48.196;10.924;2022-11-21T06:23:39;4.80;71.70
8422;DHT22;4248;48.196;10.924;2022-11-21T06:26:07;4.70;71.20
8422;DHT22;4248;48.196;10.924;2022-11-21T06:28:35;4.60;72.30
8422;DHT22;4248;48.196;10.924;2022-11-21T06:31:12;4.50;72.90
8422;DHT22;4248;48.196;10.924;2022-11-21T06:33:39;4.50;73.20
8422;DHT22;4248;48.196;10.924;2022-11-21T06:36:13;4.50;73.10
8422;DHT22;4248;48.196;10.924;2022-11-21T06:38:39;4.40;73.10
8422;DHT22;4248;48.196;10.924;2022-11-21T06:41:18;4.40;73.10
8422;DHT22;4248;48.196;10.924;2022-11-21T06:43:44;4.20;71.90
8422;DHT22;4248;48.196;10.924;2022-11-21T06:46:10;4.20;71.90
8422;DHT22;4248;48.196;10.924;2022-11-21T06:48:37;4.40;73.20
8422;DHT22;4248;48.196;10.924;2022-11-21T06:51:04;4.10;72.90
8422;DHT22;4248;48.196;10.924;2022-11-21T06:53:30;4.10;71.80
8422;DHT22;4248;48.196;10.924;2022-11-21T06:55:59;4.10;72.90
8422;DHT22;4248;48.196;10.924;2022-11-21T06:58:25;4.10;72.90
8422;DHT22;4248;48.196;10.924;2022-11-21T07:00:51;4.00;72.80
8422;DHT22;4248;48.196;10.924;2022-11-21T07:03:17;4.10;72.90
8422;DHT22;4248;48.196;10.924;2022-11-21T07:05:43;4.10;71.80
8422;DHT22;4248;48.196;10.924;2022-11-21T07:08:08;4.10;72.90
8422;DHT22;4248;48.196;10.924;2022-11-21T07:10:34;4.10;72.90
8422;DHT22;4248;48.196;10.924;2022-11-21T07:13:00;4.00;72.80
8422;DHT22;4248;48.196;10.924;2022-11-21T07:15:45;4.00;71.70
8422;DHT22;4248;48.196;10.924;2022-11-21T07:18:11;4.00;72.90
8422;DHT22;4248;48.196;10.924;2022-11-21T07:20:37;4.00;72.80
8422;DHT22;4248;48.196;10.924;2022-11-21T07:23:03;4.00;72.80
8422;DHT22;4248;48.196;10.924;2022-11-21T07:25:29;4.00;71.70
8422;DHT22;4248;48.196;10.924;2022-11-21T07:27:58;4.00;72.80
8422;DHT22;4248;48.196;10.924;2022-11-21T07:30:24;4.10;72.90
8422;DHT22;4248;48.196;10.924;2022-11-21T07:33:00;4.20;72.90
8422;DHT22;4248;48.196;10.924;2022-11-21T07:35:27;4.10;71.80
8422;DHT22;4248;48.196;10.924;2022-11-21T07:37:52;4.10;74.10
8422;DHT22;4248;48.196;10.924;2022-11-21T07:40:18;4.10;72.90
8422;DHT22;4248;48.196;10.924;2022-11-21T07:42:44;4.20;71.90
8422;DHT22;4248;48.196;10.924;2022-11-21T07:45:10;4.20;71.90
8422;DHT22;4248;48.196;10.924;2022-11-21T07:47:35;4.20;73.00
8422;DHT22;4248;48.196;10.924;2022-11-21T07:50:01;4.20;73.00
8422;DHT22;4248;48.196;10.924;2022-11-21T07:52:27;4.30;74.30
8422;DHT22;4248;48.196;10.924;2022-11-21T07:54:55;4.30;72.00
8422;DHT22;4248;48.196;10.924;2022-11-21T07:57:20;4.30;73.70
8422;DHT22;4248;48.196;10.924;2022-11-21T07:59:46;4.40;73.20
8422;DHT22;4248;48.196;10.924;2022-11-21T08:02:22;4.40;73.10
8422;DHT22;4248;48.196;10.924;2022-11-21T08:04:48;4.40;72.10
8422;DHT22;4248;48.196;10.924;2022-11-21T08:07:15;4.40;73.20
8422;DHT22;4248;48.196;10.924;2022-11-21T08:09:41;4.50;73.30
8422;DHT22;4248;48.196;10.924;2022-11-21T08:12:07;4.60;73.30
8422;DHT22;4248;48.196;10.924;2022-11-21T08:14:33;5.00;71.50
8422;DHT22;4248;48.196;10.924;2022-11-21T08:16:59;5.20;72.30
8422;DHT22;4248;48.196;10.924;2022-11-21T08:19:25;5.50;71.70
8422;DHT22;4248;48.196;10.924;2022-11-21T08:21:50;5.80;70.70
8422;DHT22;4248;48.196;10.924;2022-11-21T08:24:19;6.10;69.00
8422;DHT22;4248;48.196;10.924;2022-11-21T08:26:44;6.20;70.00
8422;DHT22;4248;48.196;10.924;2022-11-21T08:29:11;6.30;69.80
8422;DHT22;4248;48.196;10.924;2022-11-21T08:31:37;6.30;69.80
8422;DHT22;4248;48.196;10.924;2022-11-21T08:34:03;6.50;68.50
8422;DHT22;4248;48.196;10.924;2022-11-21T08:36:29;6.50;69.70
8422;DHT22;4248;48.196;10.924;2022-11-21T08:38:55;6.60;69.60
8422;DHT22;4248;48.196;10.924;2022-11-21T08:41:21;6.60;69.50
8422;DHT22;4248;48.196;10.924;2022-11-21T08:44:19;7.60;68.90
8422;DHT22;4248;48.196;10.924;2022-11-21T08:46:45;6.90;69.60
8422;DHT22;4248;48.196;10.924;2022-11-21T08:49:10;6.90;69.90
8422;DHT22;4248;48.196;10.924;2022-11-21T08:51:36;6.80;70.10
8422;DHT22;4248;48.196;10.924;2022-11-21T08:54:01;6.70;70.70
8422;DHT22;4248;48.196;10.924;2022-11-21T08:56:27;6.60;71.10
8422;DHT22;4248;48.196;10.924;2022-11-21T08:58:53;6.50;71.30
8422;DHT22;4248;48.196;10.924;2022-11-21T09:01:20;6.50;71.30
8422;DHT22;4248;48.196;10.924;2022-11-21T09:03:46;6.50;71.50
8422;DHT22;4248;48.196;10.924;2022-11-21T09:06:11;6.70;71.10
8422;DHT22;4248;48.196;10.924;2022-11-21T09:08:38;6.90;70.50
8422;DHT22;4248;48.196;10.924;2022-11-21T09:11:05;7.10;69.70
8422;DHT22;4248;48.196;10.924;2022-11-21T09:13:32;7.00;68.80
8422;DHT22;4248;48.196;10.924;2022-11-21T09:15:59;7.00;69.90
8422;DHT22;4248;48.196;10.924;2022-11-21T09:18:43;6.90;70.40
8422;DHT22;4248;48.196;10.924;2022-11-21T09:21:16;6.70;71.00
8422;DHT22;4248;48.196;10.924;2022-11-21T09:23:43;6.60;71.20
8422;DHT22;4248;48.196;10.924;2022-11-21T09:26:09;6.70;71.30
8422;DHT22;4248;48.196;10.924;2022-11-21T09:28:35;6.70;71.20
8422;DHT22;4248;48.196;10.924;2022-11-21T09:31:02;6.80;71.20
8422;DHT22;4248;48.196;10.924;2022-11-21T09:33:27;7.00;69.90
8422;DHT22;4248;48.196;10.924;2022-11-21T09:35:53;7.00;70.90
8422;DHT22;4248;48.196;10.924;2022-11-21T09:38:19;7.00;70.50
8422;DHT22;4248;48.196;10.924;2022-11-21T09:40:46;7.00;70.60
8422;DHT22;4248;48.196;10.924;2022-11-21T09:46:16;7.10;69.10
8422;DHT22;4248;48.196;10.924;2022-11-21T09:48:59;7.20;70.30
8422;DHT22;4248;48.196;10.924;2022-11-21T09:51:29;7.30;70.00
8422;DHT22;4248;48.196;10.924;2022-11-21T09:53:59;7.40;68.10
8422;DHT22;4248;48.196;10.924;2022-11-21T09:56:30;7.40;69.10
8422;DHT22;4248;48.196;10.924;2022-11-21T10:01:32;7.70;67.30
8422;DHT22;4248;48.196;10.924;2022-11-21T10:04:00;7.90;65.20
8422;DHT22;4248;48.196;10.924;2022-11-21T10:06:29;8.00;65.60
8422;DHT22;4248;48.196;10.924;2022-11-21T10:09:26;8.00;65.40
8422;DHT22;4248;48.196;10.924;2022-11-21T10:29:17;8.80;61.00
8422;DHT22;4248;48.196;10.924;2022-11-21T10:31:40;9.10;60.70
8422;DHT22;4248;48.196;10.924;2022-11-21T10:34:19;9.10;58.40
8422;DHT22;4248;48.196;10.924;2022-11-21T10:36:56;9.00;59.30
8422;DHT22;4248;48.196;10.924;2022-11-21T10:39:56;9.10;59.60
8422;DHT22;4248;48.196;10.924;2022-11-21T10:42:49;9.30;59.30
8422;DHT22;4248;48.196;10.924;2022-11-21T10:45:16;9.60;57.90
8422;DHT22;4248;48.196;10.924;2022-11-21T10:47:47;9.50;57.10
8422;DHT22;4248;48.196;10.924;2022-11-21T10:53:16;9.00;57.70
8422;DHT22;4248;48.196;10.924;2022-11-21T10:56:04;9.00;55.50
8422;DHT22;4248;48.196;10.924;2022-11-21T11:01:27;9.10;56.20
8422;DHT22;4248;48.196;10.924;2022-11-21T11:06:36;9.00;56.10
8422;DHT22;4248;48.196;10.924;2022-11-21T11:09:02;9.00;56.10
8422;DHT22;4248;48.196;10.924;2022-11-21T11:11:28;9.10;55.20
8422;DHT22;4248;48.196;10.924;2022-11-21T11:14:03;8.90;54.60
8422;DHT22;4248;48.196;10.924;2022-11-21T11:16:31;8.70;54.50
8422;DHT22;4248;48.196;10.924;2022-11-21T11:21:42;8.60;55.70
8422;DHT22;4248;48.196;10.924;2022-11-21T11:34:37;8.80;53.90
8422;DHT22;4248;48.196;10.924;2022-11-21T11:37:14;8.80;55.50
8422;DHT22;4248;48.196;10.924;2022-11-21T11:45:40;8.40;54.20
8422;DHT22;4248;48.196;10.924;2022-11-21T11:48:29;8.20;54.90
8422;DHT22;4248;48.196;10.924;2022-11-21T11:51:00;7.90;54.70
8422;DHT22;4248;48.196;10.924;2022-11-21T11:53:36;7.80;55.10
8422;DHT22;4248;48.196;10.924;2022-11-21T11:58:52;7.60;55.30
8422;DHT22;4248;48.196;10.924;2022-11-21T12:01:42;7.60;55.30
8422;DHT22;4248;48.196;10.924;2022-11-21T12:04:17;7.80;54.90
8422;DHT22;4248;48.196;10.924;2022-11-21T12:09:44;8.50;53.70
8422;DHT22;4248;48.196;10.924;2022-11-21T12:12:17;8.70;52.90
8422;DHT22;4248;48.196;10.924;2022-11-21T12:20:58;8.80;51.60
8422;DHT22;4248;48.196;10.924;2022-11-21T12:42:40;8.30;52.90
8422;DHT22;4248;48.196;10.924;2022-11-21T12:45:42;8.30;53.20
8422;DHT22;4248;48.196;10.924;2022-11-21T12:48:16;8.40;53.00
8422;DHT22;4248;48.196;10.924;2022-11-21T12:51:22;8.60;53.00
8422;DHT22;4248;48.196;10.924;2022-11-21T12:57:08;8.90;52.80
8422;DHT22;4248;48.196;10.924;2022-11-21T13:00:03;8.80;53.50
8422;DHT22;4248;48.196;10.924;2022-11-21T13:05:37;8.40;53.70
8422;DHT22;4248;48.196;10.924;2022-11-21T13:08:09;8.30;55.20
8422;DHT22;4248;48.196;10.924;2022-11-21T13:10:37;8.20;55.90
8422;DHT22;4248;48.196;10.924;2022-11-21T13:13:22;8.10;56.10
8422;DHT22;4248;48.196;10.924;2022-11-21T13:16:00;8.00;55.10
8422;DHT22;4248;48.196;10.924;2022-11-21T13:18:32;8.10;56.50
8422;DHT22;4248;48.196;10.924;2022-11-21T13:21:00;8.20;56.50
8422;DHT22;4248;48.196;10.924;2022-11-21T13:23:41;8.30;55.10
8422;DHT22;4248;48.196;10.924;2022-11-21T13:29:09;8.20;56.30
8422;DHT22;4248;48.196;10.924;2022-11-21T13:31:36;8.20;56.60
8422;DHT22;4248;48.196;10.924;2022-11-21T13:34:03;8.20;55.70
8422;DHT22;4248;48.196;10.924;2022-11-21T13:58:14;8.20;57.70
8422;DHT22;4248;48.196;10.924;2022-11-21T14:12:02;8.30;56.60
8422;DHT22;4248;48.196;10.924;2022-11-21T14:19:41;8.50;55.60
8422;DHT22;4248;48.196;10.924;2022-11-21T14:22:15;8.50;55.60
8422;DHT22;4248;48.196;10.924;2022-11-21T14:24:41;8.40;55.50
8422;DHT22;4248;48.196;10.924;2022-11-21T14:27:15;8.30;55.60
8422;DHT22;4248;48.196;10.924;2022-11-21T14:29:43;8.20;55.70
8422;DHT22;4248;48.196;10.924;2022-11-21T14:32:14;8.20;55.80
8422;DHT22;4248;48.196;10.924;2022-11-21T14:34:40;8.10;55.80
8422;DHT22;4248;48.196;10.924;2022-11-21T14:37:06;8.10;55.80
8422;DHT22;4248;48.196;10.924;2022-11-21T14:39:33;8.00;55.70
8422;DHT22;4248;48.196;10.924;2022-11-21T14:42:05;7.90;55.80
8422;DHT22;4248;48.196;10.924;2022-11-21T14:44:35;7.90;55.80
8422;DHT22;4248;48.196;10.924;2022-11-21T14:47:21;7.80;56.00
8422;DHT22;4248;48.196;10.924;2022-11-21T14:49:50;7.70;55.70
8422;DHT22;4248;48.196;10.924;2022-11-21T14:52:18;7.60;55.90
8422;DHT22;4248;48.196;10.924;2022-11-21T14:54:57;7.40;55.00
8422;DHT22;4248;48.196;10.924;2022-11-21T14:57:25;7.40;56.20
8422;DHT22;4248;48.196;10.924;2022-11-21T14:59:54;7.30;56.30
8422;DHT22;4248;48.196;10.924;2022-11-21T15:02:26;7.30;56.00
8422;DHT22;4248;48.196;10.924;2022-11-21T15:04:53;7.20;55.00
8422;DHT22;4248;48.196;10.924;2022-11-21T15:07:24;7.10;56.10
8422;DHT22;4248;48.196;10.924;2022-11-21T15:09:50;7.00;56.40
8422;DHT22;4248;48.196;10.924;2022-11-21T15:12:28;6.80;56.60
8422;DHT22;4248;48.196;10.924;2022-11-21T15:15:33;6.70;56.10
8422;DHT22;4248;48.196;10.924;2022-11-21T15:18:02;7.00;57.70
8422;DHT22;4248;48.196;10.924;2022-11-21T15:20:29;6.50;57.70
8422;DHT22;4248;48.196;10.924;2022-11-21T15:22:58;6.40;57.90
8422;DHT22;4248;48.196;10.924;2022-11-21T15:25:26;6.20;59.30
8422;DHT22;4248;48.196;10.924;2022-11-21T15:30:26;6.10;58.60
8422;DHT22;4248;48.196;10.924;2022-11-21T15:33:12;6.00;58.80
8422;DHT22;4248;48.196;10.924;2022-11-21T15:35:48;5.90;58.00
8422;DHT22;4248;48.196;10.924;2022-11-21T15:38:40;5.90;59.30
8422;DHT22;4248;48.196;10.924;2022-11-21T15:46:10;5.60;59.70
8422;DHT22;4248;48.196;10.924;2022-11-21T15:48:37;5.60;59.90
8422;DHT22;4248;48.196;10.924;2022-11-21T15:51:03;5.50;60.00
8422;DHT22;4248;48.196;10.924;2022-11-21T15:53:28;5.40;59.40
8422;DHT22;4248;48.196;10.924;2022-11-21T15:55:54;5.40;60.30
8422;DHT22;4248;48.196;10.924;2022-11-21T15:58:19;5.30;60.50
8422;DHT22;4248;48.196;10.924;2022-11-21T16:00:45;5.30;60.80
8422;DHT22;4248;48.196;10.924;2022-11-21T16:03:11;5.20;60.80
8422;DHT22;4248;48.196;10.924;2022-11-21T16:05:36;5.10;60.10
8422;DHT22;4248;48.196;10.924;2022-11-21T16:08:03;5.10;61.20
8422;DHT22;4248;48.196;10.924;2022-11-21T16:10:29;5.00;61.10
8422;DHT22;4248;48.196;10.924;2022-11-21T16:12:55;5.00;61.50
8422;DHT22;4248;48.196;10.924;2022-11-21T16:15:21;4.90;60.80
8422;DHT22;4248;48.196;10.924;2022-11-21T16:17:47;4.90;62.00
8422;DHT22;4248;48.196;10.924;2022-11-21T16:20:12;4.90;62.20
8422;DHT22;4248;48.196;10.924;2022-11-21T16:22:38;4.80;62.30
8422;DHT22;4248;48.196;10.924;2022-11-21T16:25:04;4.70;61.70
8422;DHT22;4248;48.196;10.924;2022-11-21T16:27:32;4.70;62.90
8422;DHT22;4248;48.196;10.924;2022-11-21T16:29:58;4.70;63.00
8422;DHT22;4248;48.196;10.924;2022-11-21T16:32:24;4.70;63.20
8422;DHT22;4248;48.196;10.924;2022-11-21T16:34:50;4.60;62.10
8422;DHT22;4248;48.196;10.924;2022-11-21T16:37:16;4.60;63.10
8422;DHT22;4248;48.196;10.924;2022-11-21T16:39:42;4.60;63.20
8422;DHT22;4248;48.196;10.924;2022-11-21T16:42:10;4.60;63.30
8422;DHT22;4248;48.196;10.924;2022-11-21T16:44:36;4.50;63.10
8422;DHT22;4248;48.196;10.924;2022-11-21T16:47:01;4.50;63.50
8422;DHT22;4248;48.196;10.924;2022-11-21T16:49:27;4.40;63.70
8422;DHT22;4248;48.196;10.924;2022-11-21T16:51:53;4.30;63.90
8422;DHT22;4248;48.196;10.924;2022-11-21T16:54:20;4.30;64.10
8422;DHT22;4248;48.196;10.924;2022-11-21T16:56:46;4.20;64.20
8422;DHT22;4248;48.196;10.924;2022-11-21T16:59:11;4.20;64.10
8422;DHT22;4248;48.196;10.924;2022-11-21T17:01:37;4.20;64.40
8422;DHT22;4248;48.196;10.924;2022-11-21T17:04:02;4.10;64.60
8422;DHT22;4248;48.196;10.924;2022-11-21T17:06:29;4.20;64.70
8422;DHT22;4248;48.196;10.924;2022-11-21T17:08:58;4.10;64.90
8422;DHT22;4248;48.196;10.924;2022-11-21T17:11:26;4.10;65.10
8422;DHT22;4248;48.196;10.924;2022-11-21T17:13:54;4.10;65.50
8422;DHT22;4248;48.196;10.924;2022-11-21T17:16:21;4.10;65.80
8422;DHT22;4248;48.196;10.924;2022-11-21T17:18:51;4.10;65.80
8422;DHT22;4248;48.196;10.924;2022-11-21T17:21:16;4.00;65.90
8422;DHT22;4248;48.196;10.924;2022-11-21T17:23:43;3.90;65.40
8422;DHT22;4248;48.196;10.924;2022-11-21T17:26:12;3.90;66.40
8422;DHT22;4248;48.196;10.924;2022-11-21T17:28:38;3.90;66.70
8422;DHT22;4248;48.196;10.924;2022-11-21T17:31:08;3.90;66.90
8422;DHT22;4248;48.196;10.924;2022-11-21T17:33:34;3.90;66.10
8422;DHT22;4248;48.196;10.924;2022-11-21T17:36:05;3.90;67.10
8422;DHT22;4248;48.196;10.924;2022-11-21T17:38:31;3.90;67.30
8422;DHT22;4248;48.196;10.924;2022-11-21T17:41:07;3.80;67.30
8422;DHT22;4248;48.196;10.924;2022-11-21T17:43:34;3.80;66.30
8422;DHT22;4248;48.196;10.924;2022-11-21T17:46:04;3.80;67.40
8422;DHT22;4248;48.196;10.924;2022-11-21T17:48:32;3.80;67.60
8422;DHT22;4248;48.196;10.924;2022-11-21T17:51:06;3.80;67.80
8422;DHT22;4248;48.196;10.924;2022-11-21T17:53:34;3.80;67.00
8422;DHT22;4248;48.196;10.924;2022-11-21T17:56:01;3.80;68.10
8422;DHT22;4248;48.196;10.924;2022-11-21T17:58:27;3.80;67.90
8422;DHT22;4248;48.196;10.924;2022-11-21T18:00:54;3.80;68.20
8422;DHT22;4248;48.196;10.924;2022-11-21T18:03:20;3.80;68.40
8422;DHT22;4248;48.196;10.924;2022-11-21T18:05:46;3.70;67.40
8422;DHT22;4248;48.196;10.924;2022-11-21T18:08:12;3.70;68.90
8422;DHT22;4248;48.196;10.924;2022-11-21T18:10:37;3.80;69.30
8422;DHT22;4248;48.196;10.924;2022-11-21T18:13:03;3.70;69.40
8422;DHT22;4248;48.196;10.924;2022-11-21T18:15:29;3.70;68.50
8422;DHT22;4248;48.196;10.924;2022-11-21T18:17:54;3.60;69.50
8422;DHT22;4248;48.196;10.924;2022-11-21T18:20:20;3.60;70.00
8422;DHT22;4248;48.196;10.924;2022-11-21T18:22:45;3.60;69.90
8422;DHT22;4248;48.196;10.924;2022-11-21T18:25:13;3.60;68.80
8422;DHT22;4248;48.196;10.924;2022-11-21T18:27:39;3.60;69.90
8422;DHT22;4248;48.196;10.924;2022-11-21T18:30:05;3.60;69.80
8422;DHT22;4248;48.196;10.924;2022-11-21T18:32:30;3.60;69.80
8422;DHT22;4248;48.196;10.924;2022-11-21T18:34:58;3.60;68.80
8422;DHT22;4248;48.196;10.924;2022-11-21T18:37:24;3.50;71.00